Portada
METAR-TAF:

METAR-TAF

Aeropuertos :

Aeropuerto Internacional de Bagdad

Bagdad, Iraq

latitud: 33-15-45N, longitud: 44-14-04E, altitud: 35 m

Observación

El informe se hizo hace 31 minutos, a las 04:00 UTC
Viento 6 kt del norte-noroeste
Temperatura 18°C
Humedad 94%
Presión 1018 hPa
Visibilidad: 9000 m
Nubes dispersas a una altura de 3000 ft

METAR: ORBI 220400Z 33006KT 9000 SCT030 18/17 Q1018 NOSIG

Hora: 07:31 (04:31 UTC)

Pronóstico

El informe se hizo hace 6 horas y 31 minutos, a las 22:00 UTC
Pronóstico válido del 22 a las 00 UTC al 22 a las 24 UTC
Viento 6 kt del norte-noroeste
Visibilidad: 8000 m

TAF: ORBI 212200Z 2200/2224 34006KT 8000 NSC

Observaciones y pronósticos meteorológicos de más de 4000 aeropuertos (mensajes METAR y TAF).

Los puntos amarillos y rojos representan las estaciones disponibles.

Ponga el ratón en el punto deseado para ver el nombre de la estación.

Haga clic para ver las observaciones y los pronósticos meteorológicos.

Para cambiar el mapa : haga clic en los botones verdes con una cruz de color negro para hacer un zoom, en el botón verde con un guión para alejar o en las flechas verdes para mapas adyacentes.


METAR-TAF: